Latest Coastal Weather Observations for South Johnstone

IDQ60701

Issued at 3:21 am EST Wednesday 25 January 2017 (issued every 10 minutes, with the page automatically refreshed every 10 minutes)

About coastal observations | Map of coastal stations | Coastal observations for QLD | Marine services | Other Formats
Station Details ID: 032037 Name: SOUTH JOHNSTONE EXP STN Lat: -17.61 Lon: 146.00 Height: 18.3 m
Data from the previous 72 hours. | See also: Recent months at South Johnstone
Date/Time
EST
Temp
°C
Wind Pressure Rain since
9am
mm
Weather Cloud Vis
km
Sea
Height
m
Swell
Dir  Spd
kts
Gust
kts
hPa Trend Height
m
Period
s
Dir
25/03:00am 24.9 S 2 6 1011.7 - 0.2 - - - - - - -
25/02:30am 25.0 CALM 0 1 1011.7 - 0.2 - - - - - - -
25/02:00am 25.1 CALM 0 0 1011.8 - 0.2 - - - - - - -
25/01:30am 25.3 CALM 0 0 1012.0 - 0.2 - - - - - - -
25/01:00am 25.3 W 2 5 1012.3 - 0.2 - - - - - - -
25/12:30am 25.5 SW 6 7 1012.6 - 0.2 - - - - - - -
25/12:00am 25.5 WSW 4 6 1012.7 - 0.2 - - - - - - -
 
Date/Time
EST
Temp
°C
Wind Pressure Rain since
9am
mm
Weather Cloud Vis
km
Sea
Height
m
Swell
Dir  Spd
kts
Gust
kts
hPa Trend Height
m
Period
s
Dir
24/11:30pm 25.9 CALM 0 0 1013.0 - 0.2 - - - - - - -
24/11:00pm 26.3 CALM 0 0 1013.2 - 0.2 - - - - - - -
24/10:30pm 26.2 W 1 3 1013.3 - 0.2 - - - - - - -
24/10:00pm 26.3 W 1 5 1013.2 - 0.2 - - - - - - -
24/09:30pm 26.4 W 3 6 1012.9 - 0.2 - - - - - - -
24/09:00pm 26.6 W 3 5 1012.5 - 0.2 - - - - - - -
24/08:30pm 27.0 WSW 3 5 1012.2 - 0.2 - - - - - - -
24/08:00pm 28.0 SSW 3 5 1011.9 - 0.2 - - - - - - -
24/07:30pm 27.9 S 2 5 1011.6 - 0.2 - - - - - - -
24/07:00pm 28.0 SSE 3 4 1011.3 - 0.2 - - - - - - -
24/06:30pm 28.6 SE 6 8 1010.9 - 0.2 - - - - - - -
24/06:00pm 29.3 SE 6 10 1010.4 - 0.2 - - - - - - -
24/05:30pm 30.2 ESE 7 11 1010.2 - 0.2 - - - - - - -
24/05:00pm 30.6 SE 7 11 1010.1 - 0.2 - - - - - - -
24/04:30pm 30.3 SE 9 14 1009.9 - 0.2 - - - - - - -
24/04:00pm 30.7 ESE 8 13 1009.9 - 0.2 - - - - - - -
24/03:30pm 31.1 ESE 8 14 1010.0 - 0.2 - - - - - - -
24/03:00pm 30.7 SE 9 14 1010.3 - 0.2 - - - - - - -
24/02:30pm 31.0 SE 8 14 1010.7 - 0.2 - - - - - - -
24/02:00pm 31.5 ESE 8 13 1011.0 - 0.2 - - - - - - -
24/01:30pm 31.9 ESE 7 14 1011.2 - 0.2 - - - - - - -
24/01:00pm 31.1 SE 8 13 1011.4 - 0.2 - - - - - - -
24/12:30pm 31.3 SE 7 12 1011.7 - 0.0 - - - - - - -
24/12:00pm 30.6 SSE 6 10 1011.9 - 0.0 - - - - - - -
24/11:30am 28.5 SSE 7 12 1012.4 - 0.0 - - - - - - -
24/11:00am 30.2 S 7 10 1012.6 - 0.0 - - - - - - -
24/10:30am 30.5 S 6 11 1013.0 - 0.0 - - - - - - -
24/10:00am 30.0 S 6 10 1013.1 - 0.0 - - - - - - -
24/09:30am 30.3 SE 6 10 1013.3 - 0.0 - - - - - - -
24/09:00am 29.9 S 5 8 1013.2 - 5.8 - - - - - - -
24/08:30am 28.2 CALM 0 3 1013.4 - 5.8 - - - - - - -
24/08:00am 26.8 CALM 0 0 1013.1 - 5.8 - - - - - - -
24/07:30am 25.8 CALM 0 3 1013.0 - 5.8 - - - - - - -
24/07:00am 24.3 CALM 0 0 1012.9 - 5.8 - - - - - - -
24/06:30am 23.9 CALM 0 0 1012.4 - 5.8 - - - - - - -
24/06:00am 23.7 CALM 0 3 1011.7 - 5.8 - - - - - - -
24/05:30am 23.8 CALM 0 0 1011.4 - 5.8 - - - - - - -
24/05:00am 23.9 CALM 0 0 1011.3 - 5.8 - - - - - - -
24/04:30am 23.6 WSW 4 5 1011.2 - 5.8 - - - - - - -
24/04:00am 23.8 W 3 6 1011.2 - 5.8 - - - - - - -
24/03:30am 24.0 WSW 5 7 1011.2 - 5.8 - - - - - - -
24/03:00am 24.3 W 3 5 1011.2 - 5.8 - - - - - - -
24/02:30am 24.0 WSW 3 7 1011.1 - 5.8 - - - - - - -
24/02:00am 24.3 WSW 4 6 1011.1 - 5.8 - - - - - - -
24/01:30am 24.4 W 4 5 1011.6 - 5.8 - - - - - - -
24/01:00am 24.9 W 2 4 1012.2 - 5.8 - - - - - - -
24/12:30am 24.9 SW 7 8 1012.4 - 5.8 - - - - - - -
24/12:00am 25.0 WSW 3 6 1012.6 - 5.8 - - - - - - -
 
Date/Time
EST
Temp
°C
Wind Pressure Rain since
9am
mm
Weather Cloud Vis
km
Sea
Height
m
Swell
Dir  Spd
kts
Gust
kts
hPa Trend Height
m
Period
s
Dir
23/11:30pm 25.3 S 1 5 1012.9 - 5.8 - - - - - - -
23/11:00pm 25.5 CALM 0 0 1012.9 - 5.8 - - - - - - -
23/10:30pm 25.4 SSE 6 10 1013.0 - 5.6 - - - - - - -
23/10:00pm 25.9 W 3 5 1012.4 - 0.2 - - - - - - -
23/09:30pm 25.8 WSW 4 7 1012.4 - 0.2 - - - - - - -
23/09:00pm 26.3 WSW 3 4 1012.0 - 0.2 - - - - - - -
23/08:30pm 26.6 CALM 0 0 1011.9 - 0.0 - - - - - - -
23/08:00pm 27.7 CALM 0 0 1011.7 - 0.0 - - - - - - -
23/07:30pm 28.0 CALM 0 3 1011.4 - 0.0 - - - - - - -
23/07:00pm 28.7 S 1 4 1011.2 - 0.0 - - - - - - -
23/06:30pm 28.8 SSE 3 5 1010.7 - 0.0 - - - - - - -
23/06:00pm 29.7 ESE 6 10 1010.4 - 0.0 - - - - - - -
23/05:30pm 30.5 SE 6 9 1010.2 - 0.0 - - - - - - -
23/05:00pm 31.0 SE 6 11 1010.2 - 0.0 - - - - - - -
23/04:30pm 31.1 SE 7 13 1009.8 - 0.0 - - - - - - -
23/04:00pm 31.1 ESE 7 10 1009.8 - 0.0 - - - - - - -
23/03:30pm 31.4 SE 7 12 1010.0 - 0.0 - - - - - - -
23/03:00pm 31.5 ESE 8 12 1010.1 - 0.0 - - - - - - -
23/02:30pm 31.2 ESE 7 11 1010.2 - 0.0 - - - - - - -
23/02:00pm 31.8 ESE 7 11 1010.4 - 0.0 - - - - - - -
23/01:30pm 31.9 SE 8 12 1010.5 - 0.0 - - - - - - -
23/01:00pm 32.3 SSE 7 11 1010.7 - 0.0 - - - - - - -
23/12:30pm 32.0 SSE 7 12 1011.0 - 0.0 - - - - - - -
23/12:00pm 31.6 SE 7 11 1011.2 - 0.0 - - - - - - -
23/11:30am 31.3 SSE 7 11 1011.5 - 0.0 - - - - - - -
23/11:00am 31.4 SE 6 11 1011.8 - 0.0 - - - - - - -
23/10:30am 31.2 ESE 8 13 1011.8 - 0.0 - - - - - - -
23/10:00am 31.0 ESE 6 10 1011.7 - 0.0 - - - - - - -
23/09:30am 29.8 SE 7 11 1011.8 - 0.0 - - - - - - -
23/09:00am 29.2 E 5 10 1011.7 - 0.2 - - - - - - -
23/08:30am 28.3 WSW 2 5 1011.5 - 0.2 - - - - - - -
23/08:00am 26.3 CALM 0 0 1011.2 - 0.2 - - - - - - -
23/07:30am 25.1 WSW 3 5 1011.1 - 0.2 - - - - - - -
23/07:00am 24.5 WNW 3 5 1010.8 - 0.2 - - - - - - -
23/06:30am 24.2 WSW 1 3 1010.7 - 0.2 - - - - - - -
23/06:00am 24.2 S 1 3 1010.4 - 0.2 - - - - - - -
23/05:30am 24.1 W 1 4 1010.1 - 0.2 - - - - - - -
23/05:00am 24.0 NW 2 5 1009.8 - 0.2 - - - - - - -
23/04:30am 23.9 WSW 4 6 1009.5 - 0.2 - - - - - - -
23/04:00am 23.9 WNW 2 4 1009.4 - 0.2 - - - - - - -
23/03:30am 23.9 W 3 4 1009.0 - 0.2 - - - - - - -
23/03:00am 24.1 W 2 4 1009.1 - 0.2 - - - - - - -
23/02:30am 24.3 WNW 2 4 1009.4 - 0.0 - - - - - - -
23/02:00am 24.5 W 1 5 1009.7 - 0.0 - - - - - - -
23/01:30am 24.6 W 4 6 1010.0 - 0.0 - - - - - - -
23/01:00am 24.7 WNW 4 5 1010.4 - 0.0 - - - - - - -
23/12:30am 24.8 WSW 5 7 1010.7 - 0.0 - - - - - - -
23/12:00am 25.0 WNW 4 6 1010.8 - 0.0 - - - - - - -
 
Date/Time
EST
Temp
°C
Wind Pressure Rain since
9am
mm
Weather Cloud Vis
km
Sea
Height
m
Swell
Dir  Spd
kts
Gust
kts
hPa Trend Height
m
Period
s
Dir
22/11:30pm 25.3 CALM 0 1 1011.1 - 0.0 - - - - - - -
22/11:00pm 25.4 SW 2 5 1011.3 - 0.0 - - - - - - -
22/10:30pm 25.5 WSW 5 8 1011.5 - 0.0 - - - - - - -
22/10:00pm 25.3 WSW 5 7 1011.4 - 0.0 - - - - - - -
22/09:30pm 25.5 WSW 4 6 1011.3 - 0.0 - - - - - - -
22/09:00pm 25.8 WSW 2 4 1011.0 - 0.0 - - - - - - -
22/08:30pm 26.0 CALM 0 0 1010.9 - 0.0 - - - - - - -
22/08:00pm 26.8 CALM 0 0 1010.5 - 0.0 - - - - - - -
22/07:30pm 27.7 CALM 0 0 1010.2 - 0.0 - - - - - - -
22/07:00pm 28.3 CALM 0 0 1009.8 - 0.0 - - - - - - -
22/06:30pm 29.1 E 4 5 1009.3 - 0.0 - - - - - - -
22/06:00pm 29.7 E 5 8 1008.8 - 0.0 - - - - - - -
22/05:30pm 30.4 E 6 9 1008.4 - 0.0 - - - - - - -
22/05:00pm 31.0 ESE 6 11 1008.2 - 0.0 - - - - - - -
22/04:30pm 31.1 E 7 10 1008.1 - 0.0 - - - - - - -
22/04:00pm 30.9 E 7 10 1008.1 - 0.0 - - - - - - -
22/03:30pm 31.5 ENE 6 9 1008.1 - 0.0 - - - - - - -
22/03:00pm 31.8 E 7 12 1008.3 - 0.0 - - - - - - -
22/02:30pm 31.2 E 7 11 1008.6 - 0.0 - - - - - - -
22/02:00pm 31.5 E 8 12 1008.8 - 0.0 - - - - - - -
22/01:30pm 32.0 ENE 7 10 1009.0 - 0.0 - - - - - - -
22/01:00pm 31.5 E 7 11 1009.2 - 0.0 - - - - - - -
22/12:30pm 31.8 E 6 10 1009.2 - 0.0 - - - - - - -
22/12:00pm 31.5 ENE 7 11 1009.4 - 0.0 - - - - - - -
22/11:30am 31.7 ESE 4 6 1009.8 - 0.0 - - - - - - -
22/11:00am 32.2 ENE 1 4 1009.9 - 0.0 - - - - - - -
22/10:30am 32.4 CALM 0 3 1009.9 - 0.0 - - - - - - -
22/10:00am 32.6 CALM 0 4 1009.9 - 0.0 - - - - - - -
22/09:30am 31.2 SSE 1 4 1010.0 - 0.0 - - - - - - -
22/09:00am 30.6 CALM 0 4 1010.0 - 0.0 - - - - - - -
22/08:30am 28.9 W 1 4 1010.0 - 0.0 - - - - - - -
22/08:00am 27.4 WNW 1 4 1009.9 - 0.0 - - - - - - -
22/07:30am 26.0 WSW 2 4 1009.9 - 0.0 - - - - - - -
22/07:00am 24.7 WNW 2 5 1009.5 - 0.0 - - - - - - -
22/06:30am 24.1 NW 3 4 1009.4 - 0.0 - - - - - - -
22/06:00am 24.1 WNW 3 5 1008.9 - 0.0 - - - - - - -
22/05:30am 24.3 CALM 0 0 1008.7 - 0.0 - - - - - - -
22/05:00am 24.4 CALM 0 0 1008.3 - 0.0 - - - - - - -
22/04:30am 24.5 CALM 0 0 1008.1 - 0.0 - - - - - - -
22/04:00am 24.5 CALM 0 0 1007.8 - 0.0 - - - - - - -
22/03:30am 24.7 CALM 0 0 1007.6 - 0.0 - - - - - - -

Other Formats:

Comma delimited format used in spreadsheet applications
http://www.bom.gov.au/fwo/IDQ60701/IDQ60701.95292.axf

JavaScript Object Notation format (JSON) in row-major order
http://www.bom.gov.au/fwo/IDQ60701/IDQ60701.95292.json